Time;durP1;ratioP1;P1;durP2;ratioP2;P2;SDS_P1;SDS_P2;PMS_P1;PMS_P2;Temp;Humidity;BMP_temperature;BMP_pressure;BME280_temperature;BME280_humidity;BME280_pressure;Samples;Min_cycle;Max_cycle;Signal;HPM_P1;HPM_P2
2021/09/13 00:02:08;;;;;;;7.20;3.28;;;15.50;69.30;;;;;;5028645;28;20030;-74
2021/09/13 00:04:34;;;;;;;4.28;2.50;;;15.40;69.30;;;;;;5039327;28;20083;-74
2021/09/13 00:07:00;;;;;;;4.55;2.33;;;15.40;69.40;;;;;;5039553;28;20104;-74
2021/09/13 00:09:26;;;;;;;5.25;2.30;;;15.30;69.40;;;;;;5039061;28;20072;-74
2021/09/13 00:11:52;;;;;;;3.83;2.47;;;15.30;69.60;;;;;;5035585;28;20401;-74
2021/09/13 00:14:19;;;;;;;4.53;2.45;;;15.30;69.50;;;;;;5036923;28;20033;-75
2021/09/13 00:16:45;;;;;;;4.40;2.30;;;15.20;69.70;;;;;;5039271;28;20025;-75
2021/09/13 00:19:11;;;;;;;5.05;2.75;;;15.20;69.70;;;;;;5037846;28;20071;-74
2021/09/13 00:21:37;;;;;;;6.90;2.47;;;15.10;69.80;;;;;;5039111;28;20472;-74
2021/09/13 00:24:03;;;;;;;5.93;2.40;;;15.10;69.70;;;;;;5038680;28;20116;-74
2021/09/13 00:26:29;;;;;;;4.45;2.50;;;15.00;69.70;;;;;;5038856;28;20044;-74
2021/09/13 00:28:55;;;;;;;3.97;2.00;;;15.10;69.90;;;;;;5038927;28;20022;-74
2021/09/13 00:31:21;;;;;;;4.07;2.25;;;15.00;69.70;;;;;;5039013;28;20108;-74
2021/09/13 00:33:46;;;;;;;4.07;2.22;;;14.90;69.80;;;;;;5038364;28;20042;-74
2021/09/13 00:36:12;;;;;;;4.45;2.80;;;14.90;69.80;;;;;;5038839;28;20527;-75
2021/09/13 00:38:38;;;;;;;4.55;2.13;;;14.90;69.80;;;;;;5038543;28;20034;-74
2021/09/13 00:41:04;;;;;;;3.50;2.00;;;14.90;69.60;;;;;;5037369;28;20048;-74
2021/09/13 00:43:30;;;;;;;4.68;2.05;;;14.80;69.80;;;;;;5037019;28;20168;-74
2021/09/13 00:45:56;;;;;;;4.18;2.15;;;14.80;69.80;;;;;;5038644;28;20022;-74
2021/09/13 00:48:21;;;;;;;5.45;2.92;;;14.80;69.90;;;;;;5038457;28;20044;-74
2021/09/13 00:50:47;;;;;;;5.43;2.50;;;14.80;70.10;;;;;;5038752;28;20368;-74
2021/09/13 00:53:13;;;;;;;4.80;2.40;;;14.80;70.20;;;;;;5038245;28;20033;-75
2021/09/13 00:55:39;;;;;;;4.13;2.22;;;14.70;70.20;;;;;;5038417;28;20392;-75
2021/09/13 00:58:07;;;;;;;4.97;2.67;;;14.70;70.10;;;;;;5037990;28;20033;-74
2021/09/13 01:00:36;;;;;;;5.97;2.50;;;14.70;70.10;;;;;;5028788;28;20523;-75
2021/09/13 01:03:02;;;;;;;4.20;2.60;;;14.70;70.20;;;;;;5034715;28;20091;-75
2021/09/13 01:05:28;;;;;;;4.65;2.30;;;14.70;70.20;;;;;;5038381;28;20036;-75
2021/09/13 01:07:55;;;;;;;5.47;2.50;;;14.70;70.30;;;;;;5038007;28;20022;-74
2021/09/13 01:10:22;;;;;;;5.53;2.65;;;14.60;70.20;;;;;;5037855;28;20029;-75
2021/09/13 01:12:48;;;;;;;6.07;2.38;;;14.60;70.40;;;;;;5034632;28;20022;-75
2021/09/13 01:15:14;;;;;;;4.07;2.50;;;14.60;70.20;;;;;;5038057;28;20096;-75
2021/09/13 01:17:40;;;;;;;4.60;2.50;;;14.50;70.10;;;;;;5037906;28;20033;-75
2021/09/13 01:20:07;;;;;;;5.43;2.30;;;14.60;70.20;;;;;;5037886;28;20033;-74
2021/09/13 01:22:33;;;;;;;5.13;2.47;;;14.50;69.90;;;;;;5037863;28;20039;-75
2021/09/13 01:25:00;;;;;;;4.80;2.60;;;14.60;70.20;;;;;;5037872;28;20029;-74
2021/09/13 01:27:27;;;;;;;4.13;2.10;;;14.50;70.50;;;;;;5037530;28;20021;-75
2021/09/13 01:29:53;;;;;;;3.63;2.33;;;14.50;70.40;;;;;;5038043;28;20065;-75
2021/09/13 01:32:19;;;;;;;5.00;2.28;;;14.50;70.70;;;;;;5037522;28;20140;-75
2021/09/13 01:34:45;;;;;;;3.38;1.88;;;14.50;70.70;;;;;;5037545;28;20075;-75
2021/09/13 01:37:11;;;;;;;5.00;2.28;;;14.50;70.70;;;;;;5037599;28;20060;-75
2021/09/13 01:39:37;;;;;;;3.60;2.10;;;14.50;70.80;;;;;;5037466;28;20072;-75
2021/09/13 01:42:03;;;;;;;4.80;2.47;;;14.50;70.80;;;;;;5037110;28;20029;-75
2021/09/13 01:44:29;;;;;;;5.00;2.30;;;14.50;70.70;;;;;;5037606;28;20392;-75
2021/09/13 01:46:55;;;;;;;4.95;2.30;;;14.50;70.80;;;;;;5037433;28;20102;-75
2021/09/13 01:49:21;;;;;;;4.25;2.30;;;14.50;70.40;;;;;;5037572;28;20022;-75
2021/09/13 01:51:47;;;;;;;4.38;2.40;;;14.50;70.50;;;;;;5037374;28;20036;-75
2021/09/13 01:54:14;;;;;;;4.50;2.25;;;14.50;70.80;;;;;;5037279;28;20029;-75
2021/09/13 01:56:39;;;;;;;4.03;1.83;;;14.50;70.90;;;;;;5037047;28;20477;-75
2021/09/13 01:59:05;;;;;;;5.03;1.95;;;14.50;71.00;;;;;;5037440;28;20044;-75
2021/09/13 02:01:31;;;;;;;4.25;2.40;;;14.50;71.70;;;;;;5023839;28;20041;-75
2021/09/13 02:03:57;;;;;;;5.03;2.15;;;14.50;71.00;;;;;;5037311;28;20072;-75
2021/09/13 02:06:23;;;;;;;3.67;1.90;;;14.40;70.70;;;;;;5035850;28;20040;-75
2021/09/13 02:08:49;;;;;;;4.63;2.20;;;14.40;70.70;;;;;;5037251;28;20021;-75
2021/09/13 02:11:14;;;;;;;5.22;2.30;;;14.40;70.80;;;;;;5035317;28;20116;-75
2021/09/13 02:13:40;;;;;;;4.68;2.20;;;14.40;71.00;;;;;;5037272;28;20021;-75
2021/09/13 02:16:07;;;;;;;4.53;2.70;;;14.40;70.80;;;;;;5035800;28;20029;-75
2021/09/13 02:18:33;;;;;;;4.25;2.40;;;14.40;70.90;;;;;;5037238;28;20078;-75
2021/09/13 02:21:00;;;;;;;4.50;2.40;;;14.30;70.80;;;;;;5037027;28;20036;-75
2021/09/13 02:23:26;;;;;;;3.67;2.08;;;14.20;70.70;;;;;;5037109;28;20022;-75
2021/09/13 02:25:51;;;;;;;4.68;2.47;;;14.20;70.60;;;;;;5036903;28;20029;-75
2021/09/13 02:28:17;;;;;;;4.35;2.13;;;14.20;70.50;;;;;;5036981;28;20025;-75
2021/09/13 02:30:43;;;;;;;4.63;2.55;;;14.20;70.70;;;;;;5036980;28;20037;-75
2021/09/13 02:33:09;;;;;;;4.72;2.53;;;14.10;71.00;;;;;;5036953;28;20044;-75
2021/09/13 02:35:35;;;;;;;4.63;2.38;;;14.10;70.90;;;;;;5036925;28;20037;-75
2021/09/13 02:38:01;;;;;;;4.40;2.22;;;14.00;70.70;;;;;;5038831;28;20024;-75
2021/09/13 02:40:27;;;;;;;4.93;2.40;;;14.00;70.90;;;;;;5040555;28;20451;-75
2021/09/13 02:42:53;;;;;;;4.63;2.47;;;14.00;71.00;;;;;;5040868;28;20392;-75
2021/09/13 02:45:19;;;;;;;4.40;2.50;;;14.00;71.10;;;;;;5040687;28;20485;-75
2021/09/13 02:47:44;;;;;;;5.32;2.30;;;13.90;70.80;;;;;;5040919;28;20112;-75
2021/09/13 02:50:11;;;;;;;4.32;2.30;;;13.90;71.00;;;;;;5039286;28;20071;-75
2021/09/13 02:52:37;;;;;;;4.10;2.13;;;13.80;71.00;;;;;;5040914;28;20030;-75
2021/09/13 02:55:05;;;;;;;4.10;2.15;;;13.90;73.40;;;;;;5040419;28;20026;-75
2021/09/13 02:57:31;;;;;;;4.05;2.40;;;13.90;71.80;;;;;;5040472;28;20026;-75
2021/09/13 02:59:57;;;;;;;4.15;2.28;;;13.80;71.10;;;;;;5035906;28;20025;-75
2021/09/13 03:02:22;;;;;;;4.40;2.50;;;13.80;71.60;;;;;;5031838;28;20068;-75
2021/09/13 03:04:48;;;;;;;4.38;2.42;;;13.80;70.80;;;;;;5039087;28;20108;-75
2021/09/13 03:07:14;;;;;;;5.55;2.90;;;13.70;72.20;;;;;;5040576;28;20499;-75
2021/09/13 03:09:41;;;;;;;4.97;2.40;;;13.80;72.20;;;;;;5040135;28;20033;-75
2021/09/13 03:12:08;;;;;;;5.38;2.50;;;13.80;71.60;;;;;;5036544;28;20388;-74
2021/09/13 03:14:34;;;;;;;4.10;2.25;;;13.70;71.00;;;;;;5040146;28;20033;-75
2021/09/13 03:17:00;;;;;;;6.47;2.80;;;13.80;71.40;;;;;;5040499;28;20030;-74
2021/09/13 03:19:26;;;;;;;5.40;2.85;;;13.70;73.40;;;;;;5038799;28;20026;-74
2021/09/13 03:21:52;;;;;;;4.97;2.60;;;13.70;72.10;;;;;;5040194;28;20025;-74
2021/09/13 03:24:18;;;;;;;4.55;2.63;;;13.70;71.30;;;;;;5039890;28;20075;-74
2021/09/13 03:26:44;;;;;;;4.80;2.80;;;13.60;71.40;;;;;;5040075;28;20025;-75
2021/09/13 03:29:10;;;;;;;4.68;2.42;;;13.60;71.10;;;;;;5040104;28;20029;-74
2021/09/13 03:31:36;;;;;;;7.28;2.70;;;13.60;70.80;;;;;;5040003;28;20029;-74
2021/09/13 03:34:02;;;;;;;6.43;3.30;;;13.60;72.80;;;;;;5039642;28;20103;-74
2021/09/13 03:36:28;;;;;;;4.88;2.60;;;13.60;73.00;;;;;;5040112;28;20021;-75
2021/09/13 03:38:54;;;;;;;8.88;3.30;;;13.60;71.70;;;;;;5039627;28;20117;-74
2021/09/13 03:41:20;;;;;;;5.53;2.80;;;13.60;71.40;;;;;;5039551;28;20032;-74
2021/09/13 03:43:45;;;;;;;5.57;2.63;;;13.50;71.20;;;;;;5039703;28;20026;-74
2021/09/13 03:46:11;;;;;;;4.97;2.97;;;13.60;71.00;;;;;;5039733;28;20025;-74
2021/09/13 03:48:37;;;;;;;5.18;2.90;;;13.50;71.30;;;;;;5038724;28;20026;-75
2021/09/13 03:51:03;;;;;;;5.28;2.88;;;13.60;71.40;;;;;;5039268;28;20030;-74
2021/09/13 03:53:29;;;;;;;4.88;2.72;;;13.60;71.10;;;;;;5039389;28;20057;-74
2021/09/13 03:55:55;;;;;;;5.72;3.08;;;13.50;71.00;;;;;;5039498;28;20037;-74
2021/09/13 03:58:20;;;;;;;5.10;3.03;;;13.60;70.90;;;;;;5039035;28;20025;-75
2021/09/13 04:00:46;;;;;;;5.32;2.92;;;13.60;71.40;;;;;;5028141;28;20030;-75
2021/09/13 04:03:17;;;;;;;5.55;3.33;;;13.60;71.10;;;;;;5037239;28;20026;-75
2021/09/13 04:05:45;;;;;;;5.20;2.78;;;13.60;71.00;;;;;;5039468;28;20025;-74
2021/09/13 04:08:20;;;;;;;5.60;2.83;;;13.60;70.90;;;;;;5038983;28;20113;-74
2021/09/13 04:13:14;;;;;;;5.97;3.22;;;13.60;71.40;;;;;;5039124;28;20116;-75
2021/09/13 04:15:40;;;;;;;5.72;2.78;;;13.60;71.20;;;;;;5038996;28;20049;-75
2021/09/13 04:18:06;;;;;;;5.18;2.80;;;13.60;71.40;;;;;;5039245;28;20029;-74
2021/09/13 04:20:32;;;;;;;5.72;2.97;;;13.60;71.30;;;;;;5038854;28;20021;-75
2021/09/13 04:22:57;;;;;;;4.93;3.25;;;13.60;71.50;;;;;;5039330;28;20026;-75
2021/09/13 04:25:23;;;;;;;6.95;3.90;;;13.60;71.50;;;;;;5038877;28;20467;-75
2021/09/13 04:27:49;;;;;;;5.10;2.90;;;13.60;71.50;;;;;;5038832;28;20057;-75
2021/09/13 04:30:15;;;;;;;6.05;3.58;;;13.60;71.80;;;;;;5038905;28;20029;-75
2021/09/13 04:32:41;;;;;;;6.30;3.03;;;13.60;72.00;;;;;;5038841;28;20022;-75
2021/09/13 04:35:07;;;;;;;5.95;3.28;;;13.60;72.00;;;;;;5038489;28;20053;-74
2021/09/13 04:37:33;;;;;;;5.05;2.92;;;13.60;72.20;;;;;;5038872;28;20040;-74
2021/09/13 04:39:58;;;;;;;6.30;3.25;;;13.60;72.00;;;;;;5038370;28;20029;-75
2021/09/13 04:42:24;;;;;;;5.07;3.13;;;13.60;71.90;;;;;;5038457;28;20027;-75
2021/09/13 04:44:50;;;;;;;6.70;3.10;;;13.60;72.00;;;;;;5038479;28;20030;-75
2021/09/13 04:47:16;;;;;;;8.25;3.58;;;13.60;72.00;;;;;;5024955;28;20109;-75
2021/09/13 04:49:41;;;;;;;5.40;3.30;;;13.70;72.00;;;;;;5038733;28;20040;-75
2021/09/13 04:52:07;;;;;;;4.80;2.63;;;13.70;72.10;;;;;;5038301;28;20053;-75
2021/09/13 04:54:33;;;;;;;8.38;3.88;;;13.70;71.90;;;;;;5038225;28;20030;-75
2021/09/13 04:56:59;;;;;;;5.30;3.10;;;13.70;71.30;;;;;;5038246;28;20097;-74
2021/09/13 04:59:24;;;;;;;6.03;3.20;;;13.70;71.60;;;;;;5038239;28;20026;-75
2021/09/13 05:01:50;;;;;;;5.50;3.10;;;13.70;71.30;;;;;;5037731;28;20395;-75
2021/09/13 05:04:16;;;;;;;6.38;3.35;;;13.70;71.70;;;;;;5038264;28;20040;-75
2021/09/13 05:06:42;;;;;;;6.75;3.47;;;13.70;71.70;;;;;;5038431;28;20100;-75
2021/09/13 05:09:08;;;;;;;5.85;3.17;;;13.70;72.50;;;;;;5037969;28;20017;-77
2021/09/13 05:11:34;;;;;;;6.40;3.40;;;13.70;71.80;;;;;;5035501;28;20018;-73
2021/09/13 05:14:00;;;;;;;6.05;2.97;;;13.70;72.00;;;;;;5037898;28;20032;-73
2021/09/13 05:16:26;;;;;;;5.63;3.30;;;13.70;72.70;;;;;;5038122;28;20399;-74
2021/09/13 05:18:52;;;;;;;4.82;3.05;;;13.70;72.00;;;;;;5036837;28;20079;-74
2021/09/13 05:21:18;;;;;;;6.40;3.60;;;13.70;72.00;;;;;;5038074;28;20018;-73
2021/09/13 05:23:44;;;;;;;6.57;3.78;;;13.70;72.20;;;;;;5037765;28;20029;-79
2021/09/13 05:26:13;;;;;;;6.20;3.45;;;13.70;71.80;;;;;;5037644;28;20026;-78
2021/09/13 05:28:39;;;;;;;7.45;3.30;;;13.70;71.70;;;;;;5037832;28;20542;-76
2021/09/13 05:31:05;;;;;;;7.28;4.00;;;13.70;72.00;;;;;;5038058;28;20025;-78
2021/09/13 05:33:31;;;;;;;6.32;3.25;;;13.70;72.10;;;;;;5036322;28;20061;-74
2021/09/13 05:35:57;;;;;;;6.47;3.80;;;13.70;71.90;;;;;;5037705;28;20404;-73
2021/09/13 05:38:23;;;;;;;9.85;4.43;;;13.70;71.90;;;;;;5037560;28;20037;-76
2021/09/13 05:40:50;;;;;;;7.28;3.95;;;13.70;73.10;;;;;;5036117;28;20071;-78
2021/09/13 05:43:16;;;;;;;7.30;3.60;;;13.70;73.50;;;;;;5037236;28;20396;-79
2021/09/13 05:45:42;;;;;;;7.68;4.07;;;13.80;72.60;;;;;;5037031;28;20024;-75
2021/09/13 05:48:08;;;;;;;6.65;3.70;;;13.70;72.30;;;;;;5024739;28;20033;-72
2021/09/13 05:50:34;;;;;;;7.30;4.07;;;13.80;73.20;;;;;;5037541;28;20079;-72
2021/09/13 05:53:00;;;;;;;7.30;4.65;;;13.80;72.80;;;;;;5037516;28;20032;-71
2021/09/13 05:55:26;;;;;;;7.13;3.83;;;13.80;72.50;;;;;;5037263;28;20378;-72
2021/09/13 05:57:51;;;;;;;7.35;4.40;;;13.70;72.30;;;;;;5037284;28;20099;-72
2021/09/13 06:00:20;;;;;;;6.40;4.30;;;13.80;72.60;;;;;;5036343;28;20032;-72
2021/09/13 06:02:45;;;;;;;7.28;4.07;;;13.80;72.70;;;;;;5036154;28;20049;-72
2021/09/13 06:05:11;;;;;;;5.85;3.95;;;13.80;72.70;;;;;;5037292;28;20064;-72
2021/09/13 06:07:38;;;;;;;5.97;3.97;;;13.80;72.70;;;;;;5037515;28;20476;-72
2021/09/13 06:10:04;;;;;;;7.22;4.13;;;13.80;72.60;;;;;;5035943;28;20026;-72
2021/09/13 06:12:30;;;;;;;7.95;4.28;;;13.80;73.00;;;;;;5037854;28;20029;-72
2021/09/13 06:14:56;;;;;;;6.07;3.67;;;13.80;73.00;;;;;;5041440;28;20096;-72
2021/09/13 06:17:22;;;;;;;6.85;4.28;;;13.90;73.20;;;;;;5040127;28;20040;-72
2021/09/13 06:19:48;;;;;;;8.70;4.32;;;13.90;73.20;;;;;;5041138;28;20025;-72
2021/09/13 06:22:13;;;;;;;7.18;3.92;;;13.90;73.10;;;;;;5041248;28;20053;-72
2021/09/13 06:24:40;;;;;;;6.97;4.30;;;13.90;73.10;;;;;;5041123;28;20089;-72
2021/09/13 06:27:07;;;;;;;7.57;4.53;;;14.00;73.30;;;;;;5041249;28;20025;-72
2021/09/13 06:29:34;;;;;;;8.27;4.32;;;14.00;73.20;;;;;;5041186;28;20014;-72
2021/09/13 06:32:00;;;;;;;8.80;4.90;;;14.00;73.50;;;;;;5041155;28;20041;-72
2021/09/13 06:34:27;;;;;;;6.38;3.53;;;14.10;73.30;;;;;;5040799;28;20061;-72
2021/09/13 06:36:53;;;;;;;7.00;3.50;;;14.10;73.30;;;;;;5041195;28;20079;-72
2021/09/13 06:39:19;;;;;;;6.82;3.55;;;14.20;73.40;;;;;;5040763;28;20026;-72
2021/09/13 06:41:45;;;;;;;6.10;3.55;;;14.20;73.20;;;;;;5040796;28;20029;-72
2021/09/13 06:44:10;;;;;;;4.93;3.53;;;14.30;73.00;;;;;;5040686;28;20068;-72
2021/09/13 06:49:05;;;;;;;7.15;4.00;;;14.40;72.90;;;;;;5035830;28;20033;-72
2021/09/13 06:51:32;;;;;;;7.38;4.13;;;14.50;73.10;;;;;;5039497;28;20052;-72
2021/09/13 06:53:59;;;;;;;5.72;3.67;;;14.50;72.80;;;;;;5040461;28;20022;-71
2021/09/13 06:56:25;;;;;;;7.25;3.65;;;14.50;72.60;;;;;;5040702;28;20033;-71
2021/09/13 06:58:52;;;;;;;6.72;3.97;;;14.60;72.50;;;;;;5040569;28;20028;-72
2021/09/13 07:01:21;;;;;;;6.07;3.67;;;14.70;72.80;;;;;;5040407;28;20032;-72
2021/09/13 07:03:48;;;;;;;7.03;4.18;;;14.70;72.40;;;;;;5040444;28;20104;-72
2021/09/13 07:06:15;;;;;;;8.07;4.25;;;14.80;72.40;;;;;;5039319;28;20025;-71
2021/09/13 07:08:41;;;;;;;8.57;4.80;;;14.90;72.80;;;;;;5038997;28;20075;-72
2021/09/13 07:11:07;;;;;;;17.27;9.48;;;15.00;72.70;;;;;;5039951;28;20030;-72
2021/09/13 07:13:33;;;;;;;19.83;11.18;;;15.00;72.70;;;;;;5040279;28;20037;-72
2021/09/13 07:15:59;;;;;;;17.63;9.18;;;15.10;72.80;;;;;;5039052;28;20060;-72
2021/09/13 07:18:27;;;;;;;12.60;8.45;;;15.20;72.60;;;;;;5040167;28;20021;-72
2021/09/13 07:20:53;;;;;;;12.20;7.10;;;15.30;72.90;;;;;;5040379;28;20063;-72
2021/09/13 07:23:19;;;;;;;9.27;6.63;;;15.30;72.80;;;;;;5039786;28;20491;-72
2021/09/13 07:25:44;;;;;;;10.02;6.45;;;15.40;72.60;;;;;;5040195;28;20388;-72
2021/09/13 07:28:11;;;;;;;10.55;5.78;;;15.50;72.50;;;;;;5039732;28;20018;-71
2021/09/13 07:30:36;;;;;;;7.60;5.32;;;15.60;72.80;;;;;;5039975;28;20037;-72
2021/09/13 07:33:02;;;;;;;9.73;5.75;;;15.70;72.50;;;;;;5039563;28;20018;-71
2021/09/13 07:35:28;;;;;;;8.73;5.55;;;15.80;72.60;;;;;;5040088;28;20048;-72
2021/09/13 07:37:54;;;;;;;9.07;5.00;;;15.90;72.50;;;;;;5029836;28;20061;-72
2021/09/13 07:40:20;;;;;;;10.43;5.15;;;16.00;72.70;;;;;;5034845;28;20031;-72
2021/09/13 07:42:45;;;;;;;8.55;5.55;;;16.10;72.70;;;;;;5034035;28;20040;-72
2021/09/13 07:45:11;;;;;;;9.63;5.90;;;16.10;72.50;;;;;;5038327;28;20056;-72
2021/09/13 07:47:37;;;;;;;9.68;5.82;;;16.20;72.50;;;;;;5038083;28;20017;-72
2021/09/13 07:50:05;;;;;;;12.05;7.47;;;16.20;72.60;;;;;;5039527;28;20025;-72
2021/09/13 07:52:31;;;;;;;11.60;7.32;;;16.30;72.80;;;;;;5039384;28;20024;-72
2021/09/13 07:54:57;;;;;;;8.85;5.82;;;16.30;72.80;;;;;;5040576;28;20031;-73
2021/09/13 07:57:23;;;;;;;11.57;6.22;;;16.40;72.80;;;;;;5039184;28;20021;-72
2021/09/13 07:59:49;;;;;;;9.75;5.75;;;16.40;72.80;;;;;;5039168;28;20033;-73
2021/09/13 08:02:14;;;;;;;10.93;6.90;;;16.50;72.90;;;;;;5039244;28;20140;-72
2021/09/13 08:04:40;;;;;;;13.65;6.72;;;16.60;73.10;;;;;;5042378;28;20111;-73
2021/09/13 08:07:06;;;;;;;11.43;7.07;;;16.70;73.40;;;;;;5038102;28;20077;-72
2021/09/13 08:09:32;;;;;;;15.10;7.28;;;16.90;73.50;;;;;;5039053;28;20044;-72
2021/09/13 08:11:58;;;;;;;11.73;7.38;;;17.20;74.10;;;;;;5037550;28;20036;-72
2021/09/13 08:14:24;;;;;;;14.55;7.15;;;17.60;74.60;;;;;;5039216;28;20025;-73
2021/09/13 08:16:51;;;;;;;11.52;7.20;;;18.20;75.00;;;;;;5039178;28;20399;-72
2021/09/13 08:19:17;;;;;;;12.00;7.00;;;18.90;74.80;;;;;;5037897;28;20052;-72
2021/09/13 08:21:44;;;;;;;12.73;6.28;;;19.70;74.50;;;;;;5038895;28;20025;-72
2021/09/13 08:24:11;;;;;;;12.05;6.85;;;20.40;73.30;;;;;;5038868;28;20033;-73
2021/09/13 08:26:38;;;;;;;11.80;6.45;;;20.90;71.40;;;;;;5038600;28;20446;-73
2021/09/13 08:29:06;;;;;;;10.98;6.90;;;21.40;71.10;;;;;;5037697;28;20075;-73
2021/09/13 08:31:32;;;;;;;9.35;5.72;;;21.90;71.00;;;;;;5038819;28;20018;-72
2021/09/13 08:33:58;;;;;;;10.75;5.57;;;22.50;70.30;;;;;;5038609;28;20064;-73
2021/09/13 08:36:24;;;;;;;9.80;5.20;;;22.90;69.00;;;;;;5037989;28;20066;-73
2021/09/13 08:38:50;;;;;;;11.13;5.60;;;23.30;68.90;;;;;;5038870;28;20029;-73
2021/09/13 08:41:15;;;;;;;8.32;5.80;;;23.70;68.10;;;;;;5038306;28;20033;-73
2021/09/13 08:43:43;;;;;;;8.77;5.95;;;24.20;67.50;;;;;;5038856;28;20116;-73
2021/09/13 08:46:17;;;;;;;8.68;5.53;;;24.60;65.50;;;;;;5034322;28;20024;-73
2021/09/13 08:48:51;;;;;;;9.05;4.85;;;24.90;65.90;;;;;;5030820;28;20089;-73
2021/09/13 08:51:19;;;;;;;8.00;5.00;;;25.60;66.30;;;;;;5038413;28;20392;-70
2021/09/13 08:53:52;;;;;;;9.13;4.53;;;26.30;65.50;;;;;;5038258;28;20089;-71
2021/09/13 08:56:18;;;;;;;9.57;5.20;;;27.10;63.90;;;;;;5038575;28;20022;-72
2021/09/13 08:58:45;;;;;;;8.52;4.18;;;27.80;63.40;;;;;;5038434;28;20060;-72
2021/09/13 09:01:12;;;;;;;7.78;4.47;;;28.40;61.90;;;;;;5038327;28;20025;-72
2021/09/13 09:03:40;;;;;;;8.13;4.00;;;28.80;60.80;;;;;;5038264;28;20104;-72
2021/09/13 09:06:06;;;;;;;6.95;3.92;;;29.20;59.20;;;;;;5038362;28;20021;-72
2021/09/13 09:08:33;;;;;;;8.73;4.32;;;29.50;58.40;;;;;;5037970;28;20036;-72
2021/09/13 09:11:07;;;;;;;5.78;3.63;;;29.80;57.90;;;;;;5037993;28;20025;-72
2021/09/13 09:13:43;;;;;;;6.32;3.90;;;30.00;58.20;;;;;;5038115;28;20037;-72
2021/09/13 09:16:13;;;;;;;5.32;3.50;;;30.30;56.40;;;;;;5038136;28;20029;-72
2021/09/13 09:18:46;;;;;;;6.25;3.85;;;30.70;56.50;;;;;;5037993;28;20045;-72
2021/09/13 09:21:30;;;;;;;8.95;3.80;;;31.20;56.30;;;;;;5037903;28;20515;-72
2021/09/13 09:24:00;;;;;;;8.13;3.90;;;31.60;56.00;;;;;;5027054;28;20026;-72
2021/09/13 09:26:27;;;;;;;6.15;3.38;;;31.90;55.70;;;;;;5036313;28;20018;-72
2021/09/13 09:28:55;;;;;;;7.38;3.80;;;32.20;54.20;;;;;;5037893;28;20025;-72
2021/09/13 09:31:40;;;;;;;6.93;3.45;;;32.60;53.80;;;;;;5037712;28;20396;-72
2021/09/13 09:34:22;;;;;;;5.38;3.17;;;32.80;53.50;;;;;;5031000;28;20053;-72
2021/09/13 09:37:14;;;;;;;7.55;4.00;;;33.10;52.60;;;;;;5026472;28;20032;-72
2021/09/13 09:39:52;;;;;;;7.55;3.90;;;33.20;51.80;;;;;;5036531;28;20087;-73
2021/09/13 09:42:33;;;;;;;5.93;3.67;;;32.80;49.50;;;;;;5037312;28;20071;-73
2021/09/13 09:45:01;;;;;;;5.38;3.72;;;32.30;49.90;;;;;;5037538;28;20087;-72
2021/09/13 09:47:27;;;;;;;8.82;3.65;;;31.80;50.40;;;;;;5024285;28;20030;-72
2021/09/13 09:49:55;;;;;;;9.75;4.22;;;31.20;50.40;;;;;;5037722;28;20529;-72
2021/09/13 09:52:35;;;;;;;6.80;3.72;;;30.90;50.70;;;;;;5037285;28;20102;-72
2021/09/13 09:55:12;;;;;;;7.13;4.28;;;30.80;51.40;;;;;;5037593;28;20029;-72
2021/09/13 09:57:39;;;;;;;5.82;4.20;;;30.70;51.10;;;;;;5037173;28;20056;-72
2021/09/13 10:00:28;;;;;;;6.40;4.05;;;30.70;50.50;;;;;;5037111;28;20022;-72
2021/09/13 10:02:55;;;;;;;10.98;4.55;;;30.50;50.80;;;;;;5026880;28;20116;-72
2021/09/13 10:05:23;;;;;;;8.02;4.13;;;30.30;50.60;;;;;;5037252;28;20602;-72
2021/09/13 10:07:50;;;;;;;7.80;4.97;;;30.00;51.40;;;;;;5037397;28;20029;-72
2021/09/13 10:10:18;;;;;;;8.75;4.50;;;30.10;52.20;;;;;;5037114;28;20044;-72
2021/09/13 10:12:44;;;;;;;7.68;3.67;;;30.60;52.60;;;;;;5036979;28;20037;-72
2021/09/13 10:15:10;;;;;;;7.95;3.92;;;31.30;52.10;;;;;;5037240;28;20028;-72
2021/09/13 10:17:37;;;;;;;7.85;4.35;;;31.80;51.80;;;;;;5037284;28;20403;-72
2021/09/13 10:20:05;;;;;;;6.90;4.03;;;32.20;50.80;;;;;;5037326;28;20441;-72
2021/09/13 10:22:34;;;;;;;6.38;4.25;;;32.60;50.90;;;;;;5037177;28;20499;-73
2021/09/13 10:25:00;;;;;;;7.43;4.07;;;33.00;51.50;;;;;;5037052;28;20018;-73
2021/09/13 10:27:26;;;;;;;10.75;4.90;;;33.30;51.30;;;;;;5036948;28;20104;-73
2021/09/13 10:30:21;;;;;;;6.80;4.82;;;33.60;51.30;;;;;;5037111;28;20018;-73
2021/09/13 10:32:49;;;;;;;7.80;4.18;;;34.00;50.70;;;;;;5036983;28;20022;-73
2021/09/13 10:35:17;;;;;;;8.05;4.80;;;34.30;50.10;;;;;;5037146;28;20018;-73
2021/09/13 10:37:51;;;;;;;6.72;3.60;;;34.50;48.90;;;;;;5037158;28;20104;-73
2021/09/13 10:40:21;;;;;;;7.13;3.80;;;34.70;49.20;;;;;;5035613;28;20037;-73
2021/09/13 10:42:58;;;;;;;6.50;3.85;;;34.80;47.60;;;;;;5036708;28;20025;-73
2021/09/13 10:45:44;;;;;;;7.25;3.78;;;34.90;48.60;;;;;;5037045;28;20013;-73
2021/09/13 10:48:21;;;;;;;6.53;3.38;;;35.10;48.40;;;;;;5024524;28;20037;-73
2021/09/13 10:50:51;;;;;;;8.98;3.92;;;35.20;47.80;;;;;;5036939;28;20021;-73
2021/09/13 10:53:17;;;;;;;8.95;3.58;;;35.30;47.30;;;;;;5037029;28;20030;-73
2021/09/13 10:55:49;;;;;;;9.55;3.13;;;35.40;46.90;;;;;;5036527;28;20109;-73
2021/09/13 10:58:20;;;;;;;6.55;3.40;;;35.50;46.90;;;;;;5037556;28;20029;-73
2021/09/13 11:00:45;;;;;;;6.40;3.23;;;35.60;46.20;;;;;;5040381;28;20037;-73
2021/09/13 11:03:24;;;;;;;4.78;2.90;;;35.60;46.00;;;;;;5040838;28;20021;-73
2021/09/13 11:06:25;;;;;;;6.43;3.40;;;35.60;46.50;;;;;;5027462;28;20021;-74
2021/09/13 11:08:53;;;;;;;8.18;3.40;;;35.70;46.40;;;;;;5040491;28;20108;-74
2021/09/13 11:11:32;;;;;;;5.88;3.28;;;35.70;45.50;;;;;;5039976;28;20034;-73
2021/09/13 11:14:07;;;;;;;8.15;3.60;;;35.80;44.80;;;;;;5027845;28;20392;-74
2021/09/13 11:16:39;;;;;;;5.50;2.90;;;35.70;44.70;;;;;;5040398;28;20025;-73
2021/09/13 11:19:10;;;;;;;5.57;3.15;;;35.80;45.10;;;;;;5040194;28;20476;-73
2021/09/13 11:21:44;;;;;;;6.82;3.42;;;35.80;45.50;;;;;;5040242;28;20033;-74
2021/09/13 11:24:20;;;;;;;6.40;3.42;;;35.80;44.00;;;;;;5040127;28;20457;-73
2021/09/13 11:26:55;;;;;;;8.30;3.15;;;35.90;44.70;;;;;;5039836;28;20387;-74
2021/09/13 11:29:24;;;;;;;6.13;3.05;;;35.80;44.70;;;;;;5040347;28;20049;-73
2021/09/13 11:31:55;;;;;;;6.07;2.67;;;35.90;44.50;;;;;;5040265;28;20029;-73
2021/09/13 11:34:34;;;;;;;6.65;3.15;;;35.90;44.30;;;;;;5039869;28;20106;-73
2021/09/13 11:37:23;;;;;;;6.78;2.78;;;36.00;44.50;;;;;;5040223;28;20025;-73
2021/09/13 11:39:52;;;;;;;5.93;3.08;;;36.00;44.30;;;;;;5027361;28;20056;-73
2021/09/13 11:42:20;;;;;;;6.57;3.33;;;36.00;43.90;;;;;;5039534;28;20026;-73
2021/09/13 11:44:47;;;;;;;6.07;3.45;;;36.10;44.20;;;;;;5039936;28;20467;-73
2021/09/13 11:47:28;;;;;;;5.43;3.20;;;36.00;42.90;;;;;;5026849;28;20022;-73
2021/09/13 11:49:57;;;;;;;6.55;3.13;;;36.00;43.70;;;;;;5028390;28;20434;-73
2021/09/13 11:52:31;;;;;;;7.68;3.03;;;36.00;43.70;;;;;;5039678;28;20009;-73
2021/09/13 11:55:09;;;;;;;5.40;3.60;;;36.00;44.10;;;;;;5039887;28;20053;-73
2021/09/13 11:57:50;;;;;;;6.07;3.30;;;36.00;44.00;;;;;;5039455;28;20018;-73
2021/09/13 12:00:23;;;;;;;5.00;2.60;;;36.00;43.60;;;;;;5039236;28;20271;-73
2021/09/13 12:03:02;;;;;;;4.18;3.05;;;36.00;43.70;;;;;;5039755;28;20104;-73
2021/09/13 12:05:39;;;;;;;5.28;2.58;;;35.90;43.50;;;;;;5039329;28;20021;-73
2021/09/13 12:08:21;;;;;;;5.68;2.90;;;35.90;44.00;;;;;;5039528;28;20026;-73
2021/09/13 12:10:50;;;;;;;5.78;2.35;;;35.90;43.10;;;;;;5025615;28;20489;-73
2021/09/13 12:13:19;;;;;;;5.47;2.72;;;35.90;43.40;;;;;;5039156;28;20025;-73
2021/09/13 12:15:51;;;;;;;5.80;3.15;;;35.80;43.70;;;;;;5039146;28;20087;-73
2021/09/13 12:18:19;;;;;;;5.18;2.90;;;35.70;42.30;;;;;;5039219;28;20052;-73
2021/09/13 12:20:46;;;;;;;5.15;2.80;;;35.60;42.20;;;;;;5039016;28;20103;-73
2021/09/13 12:23:18;;;;;;;5.40;3.00;;;35.50;42.30;;;;;;5038952;28;20024;-73
2021/09/13 12:25:48;;;;;;;4.72;2.97;;;35.40;42.30;;;;;;5038648;28;20044;-73
2021/09/13 12:28:35;;;;;;;6.40;3.05;;;35.20;42.60;;;;;;5038758;28;20017;-73
2021/09/13 12:31:06;;;;;;;6.18;2.88;;;35.10;43.40;;;;;;5038818;28;20025;-73
2021/09/13 12:33:38;;;;;;;5.82;3.13;;;35.00;43.40;;;;;;5038726;28;20054;-73
2021/09/13 12:36:21;;;;;;;5.18;2.83;;;34.90;42.00;;;;;;5037283;28;20404;-73
2021/09/13 12:38:58;;;;;;;4.88;2.63;;;34.70;43.00;;;;;;5038793;28;20081;-73
2021/09/13 12:41:39;;;;;;;4.25;2.50;;;34.60;42.70;;;;;;5026274;28;20064;-73
2021/09/13 12:44:21;;;;;;;3.72;2.30;;;34.50;41.30;;;;;;5038369;28;20026;-73
2021/09/13 12:46:52;;;;;;;6.68;2.22;;;34.30;42.20;;;;;;5029407;28;20030;-73
2021/09/13 12:49:20;;;;;;;3.63;2.20;;;34.20;42.00;;;;;;5035429;28;20049;-73
2021/09/13 12:52:01;;;;;;;5.45;2.53;;;34.10;41.90;;;;;;5038594;28;20418;-73
2021/09/13 12:54:31;;;;;;;4.70;2.30;;;33.90;42.80;;;;;;5038326;28;20372;-73
2021/09/13 12:56:58;;;;;;;6.25;2.47;;;33.80;42.20;;;;;;5038039;28;20459;-73